LATI METAR and TAF | Updated Today

LATI METAR

Tirana International Airport Mother Teresa

Observation time: 6 min. ago

LATI 061920Z 04004KT 360V080 CAVOK 01/M12 Q1027 NOSIG

Need help? Read our tutorial on how to read METARs or read the parsed version below.

Tirana International Airport Mother Teresa (LATI) METAR

  • Weather conditions on Mon, 06 Feb 2023 19:20:00 +0000 (6 min. ago):
  • Present conditions: Dry
  • Clouds: Clear skies
  • Visibility: Greater than 10 km
  • Wind: 40 degrees at 4 knots
  • Temperature: 1 celsius
  • Dew point: -12 celsius
  • Pressure: 1027 millibars
  • Remarks: None


Useful to know...

LATI TAF

Tirana International Airport Mother Teresa

TAF LATI 061700Z 0618/0718 VRB05KT CAVOK TX07/0712Z TNM05/0705Z BECMG 0709/0711 04014KT
Observation time: 2:26 hr. ago
Need help? Read our tutorial on how to read TAFs or read the parsed version below.

Parsed version of TAF for Tirana International Airport Mother Teresa (LATI)

  • From 06 February at 18:00 UTC, to day 07 of the month at 18:00 UTC
  • Visibility: Greater than 10 km
  • Wind: Variable at 5
  • Expected to arise soon, from 07 February at 09:00 UTC, to day 07 of the month at 11:00 UTC
  • Wind: 40 degrees at 14

Airports near LATI

No airports found within 100nm radius.